createdAt,value
2023-04-02T00:01:48.542Z,4.33
2023-04-02T00:07:30.653Z,4.32
2023-04-02T00:12:35.044Z,4.33
2023-04-02T00:17:40.150Z,4.32
2023-04-02T00:22:46.055Z,4.34
2023-04-02T00:27:50.991Z,4.31
2023-04-02T00:32:55.847Z,4.27
2023-04-02T00:38:00.758Z,4.22
2023-04-02T00:43:07.549Z,4.15
2023-04-02T00:48:42.366Z,4.10
2023-04-02T00:53:50.331Z,4.08
2023-04-02T00:58:56.527Z,4.11
2023-04-02T01:04:03.846Z,4.09
2023-04-02T01:09:52.476Z,4.05
2023-04-02T01:15:17.190Z,4.05
2023-04-02T01:20:49.650Z,4.04
2023-04-02T01:26:04.388Z,4.05
2023-04-02T01:31:07.939Z,4.04
2023-04-02T01:36:35.856Z,4.03
2023-04-02T01:41:50.100Z,4.01
2023-04-02T01:46:54.101Z,3.96
2023-04-02T01:51:59.222Z,3.93
2023-04-02T01:57:05.630Z,3.92
2023-04-02T02:02:15.771Z,3.88
2023-04-02T02:07:22.125Z,3.86
2023-04-02T02:12:27.838Z,3.82
2023-04-02T05:10:01.796Z,2.58
2023-04-02T05:15:11.371Z,2.60
2023-04-02T05:20:31.208Z,2.65
2023-04-02T05:25:34.840Z,2.71
2023-04-02T05:31:05.546Z,2.78
2023-04-02T05:36:18.057Z,2.82
2023-04-02T05:41:30.232Z,2.78
2023-04-02T05:46:45.888Z,2.75
2023-04-02T05:51:53.752Z,2.79
2023-04-02T05:57:04.086Z,2.81
2023-04-02T06:02:15.011Z,2.81
2023-04-02T06:07:25.608Z,2.81
2023-04-02T06:12:50.373Z,2.80
2023-04-02T06:18:01.927Z,2.82
2023-04-02T06:23:38.131Z,2.84
2023-04-02T06:28:46.391Z,2.83
2023-04-02T06:33:52.086Z,2.79
2023-04-02T06:39:02.534Z,2.78
2023-04-02T06:44:18.418Z,2.78
2023-04-02T06:49:52.791Z,2.81
2023-04-02T06:54:57.390Z,2.86
2023-04-02T07:00:00.178Z,2.91
2023-04-02T07:05:09.260Z,2.93
2023-04-02T07:10:12.598Z,2.96
2023-04-02T07:15:20.241Z,2.97
2023-04-02T07:20:27.473Z,2.94
2023-04-02T07:25:30.228Z,2.98
2023-04-02T07:30:32.972Z,3.05
2023-04-02T07:35:36.578Z,3.12
2023-04-02T07:40:40.533Z,3.28
2023-04-02T07:45:43.956Z,3.51
2023-04-02T07:50:48.093Z,3.66
2023-04-02T07:55:52.611Z,3.70
2023-04-02T08:00:55.926Z,3.65
2023-04-02T08:06:00.093Z,3.61
2023-04-02T08:11:03.439Z,3.58
2023-04-02T08:16:07.940Z,3.56
2023-04-02T08:21:11.398Z,3.59
2023-04-02T08:26:18.442Z,3.56
2023-04-02T08:31:21.548Z,3.56
2023-04-02T08:36:34.234Z,3.54
2023-04-02T08:41:42.803Z,3.64
2023-04-02T08:46:55.900Z,3.77
2023-04-02T08:52:00.813Z,3.84
2023-04-02T08:57:37.582Z,3.95
2023-04-02T09:02:47.504Z,4.07
2023-04-02T09:07:52.676Z,4.12
2023-04-02T09:12:58.340Z,4.17
2023-04-02T09:18:13.096Z,4.25
2023-04-02T09:23:22.059Z,4.31
2023-04-02T09:28:27.948Z,4.37
2023-04-02T09:33:59.266Z,4.43
2023-04-02T09:39:17.326Z,4.44
2023-04-02T09:44:31.755Z,4.31
2023-04-02T09:49:41.194Z,4.19
2023-04-02T09:54:44.291Z,4.15
2023-04-02T09:59:46.484Z,4.19
2023-04-02T10:04:49.788Z,4.11
2023-04-02T10:09:59.487Z,4.06
2023-04-02T10:15:04.589Z,4.06
2023-04-02T10:20:21.217Z,4.04
2023-04-02T10:25:28.974Z,4.00
2023-04-02T10:31:03.293Z,3.93
2023-04-02T10:36:33.266Z,3.92
2023-04-02T10:41:49.452Z,3.95
2023-04-02T10:47:04.219Z,4.00
2023-04-02T10:52:21.343Z,4.08
2023-04-02T10:57:51.617Z,4.16
2023-04-02T11:02:57.222Z,4.28
2023-04-02T11:08:27.753Z,4.31
2023-04-02T11:13:37.027Z,4.43
2023-04-02T11:18:39.269Z,4.55
2023-04-02T11:23:59.627Z,4.71
2023-04-02T11:29:26.146Z,4.90
2023-04-02T11:34:53.736Z,4.90
2023-04-02T11:40:21.447Z,4.72
2023-04-02T11:45:26.599Z,4.54
2023-04-02T11:50:45.552Z,4.50
2023-04-02T11:56:18.073Z,4.48
2023-04-02T12:01:46.751Z,4.49
2023-04-02T12:07:17.388Z,4.46
2023-04-02T12:12:44.590Z,4.37
2023-04-02T12:17:48.873Z,4.30
2023-04-02T12:22:54.727Z,4.22
2023-04-02T12:28:07.540Z,4.13
2023-04-02T12:33:34.041Z,4.11
2023-04-02T12:39:02.573Z,4.09
2023-04-02T12:44:27.946Z,4.08
2023-04-02T12:49:43.246Z,4.02
2023-04-02T12:54:56.593Z,3.93
2023-04-02T13:00:21.082Z,3.84
2023-04-02T13:05:38.191Z,3.85
2023-04-02T13:10:42.983Z,3.85
2023-04-02T13:16:05.223Z,3.83
2023-04-02T13:21:16.493Z,3.79
2023-04-02T13:26:27.064Z,3.77
2023-04-02T13:31:33.591Z,3.77
2023-04-02T13:36:38.335Z,3.73
2023-04-02T13:41:45.679Z,3.66
2023-04-02T13:46:49.833Z,3.66
2023-04-02T13:52:00.459Z,3.66
2023-04-02T13:57:04.085Z,3.66
2023-04-02T14:02:14.863Z,3.66
2023-04-02T14:07:45.404Z,3.60
2023-04-02T14:13:18.889Z,3.56
2023-04-02T14:18:41.866Z,3.43
2023-04-02T14:24:21.363Z,3.35
2023-04-02T14:29:39.146Z,3.24
2023-04-02T14:35:13.233Z,3.16
2023-04-02T14:40:36.964Z,3.07
2023-04-02T14:45:58.483Z,2.94
2023-04-02T14:51:30.682Z,2.82
2023-04-02T14:57:26.411Z,2.82
2023-04-02T15:02:40.800Z,2.80
2023-04-02T15:08:16.704Z,2.74
2023-04-02T15:13:25.824Z,2.65
2023-04-02T15:18:30.415Z,2.53
2023-04-02T15:23:55.386Z,2.38
2023-04-02T15:29:36.200Z,2.29
2023-04-02T15:35:00.185Z,2.24
2023-04-02T15:40:25.810Z,2.19
2023-04-02T15:45:53.162Z,2.12
2023-04-02T15:51:13.409Z,2.07
2023-04-02T15:56:47.951Z,2.02
2023-04-02T16:02:20.663Z,1.93
2023-04-02T16:07:59.193Z,1.87
2023-04-02T16:13:16.131Z,1.82
2023-04-02T16:18:41.162Z,1.83
2023-04-02T16:23:45.222Z,1.83
2023-04-02T16:29:10.778Z,1.82
2023-04-02T16:34:35.032Z,1.82
2023-04-02T16:39:54.471Z,1.85
2023-04-02T16:45:27.442Z,1.85
2023-04-02T16:50:51.651Z,1.86
2023-04-02T16:56:14.105Z,1.83
2023-04-02T17:01:26.356Z,1.77
2023-04-02T17:07:14.073Z,1.73
2023-04-02T17:12:21.937Z,1.72
2023-04-02T17:17:25.562Z,1.66
2023-04-02T17:22:31.928Z,1.59
2023-04-02T17:27:43.306Z,1.54
2023-04-02T17:32:47.804Z,1.55
2023-04-02T17:38:32.671Z,1.56
2023-04-02T17:43:35.677Z,1.59
2023-04-02T17:48:48.260Z,1.61
2023-04-02T17:54:21.397Z,1.60
2023-04-02T17:59:56.158Z,1.60
2023-04-02T18:05:32.022Z,1.60
2023-04-02T18:10:56.783Z,1.63
2023-04-02T18:16:28.754Z,1.68
2023-04-02T18:21:43.015Z,1.71
2023-04-02T18:27:00.949Z,1.75
2023-04-02T18:32:34.972Z,1.78
2023-04-02T18:38:02.998Z,1.83
2023-04-02T18:43:30.619Z,1.87
2023-04-02T18:48:40.814Z,1.89
2023-04-02T18:53:43.566Z,1.90
2023-04-02T18:58:53.075Z,1.92
2023-04-02T19:04:05.193Z,1.93
2023-04-02T19:09:44.607Z,1.93
2023-04-02T19:14:51.105Z,1.98
2023-04-02T19:20:41.471Z,2.03
2023-04-02T19:25:44.976Z,2.08
2023-04-02T19:31:10.284Z,2.07
2023-04-02T19:36:38.784Z,2.09
2023-04-02T19:41:51.997Z,2.13
2023-04-02T19:46:55.110Z,2.18
2023-04-02T19:51:57.756Z,2.18
2023-04-02T19:57:00.321Z,2.22
2023-04-02T20:02:06.832Z,2.23
2023-04-02T20:07:10.176Z,2.22
2023-04-02T20:12:13.876Z,2.19
2023-04-02T20:17:17.717Z,2.17
2023-04-02T20:22:22.486Z,2.17
2023-04-02T20:27:25.737Z,2.15
2023-04-02T20:32:28.256Z,2.13
2023-04-02T20:37:30.417Z,2.13
2023-04-02T20:42:33.892Z,2.11
2023-04-02T20:47:37.116Z,2.10
2023-04-02T20:52:40.937Z,2.07
2023-04-02T20:57:44.170Z,2.06
2023-04-02T21:02:48.021Z,2.02
2023-04-02T21:07:50.216Z,1.98
2023-04-02T21:12:52.518Z,1.93
2023-04-02T21:17:56.644Z,1.90
2023-04-02T21:23:00.016Z,1.87
2023-04-02T21:28:03.756Z,1.82
2023-04-02T21:33:06.879Z,1.79
2023-04-02T21:38:10.431Z,1.76
2023-04-02T21:43:13.759Z,1.72
2023-04-02T21:48:17.279Z,1.67
2023-04-02T21:53:21.028Z,1.63
2023-04-02T21:58:24.211Z,1.58
2023-04-02T22:03:31.922Z,1.55
2023-04-02T22:08:36.454Z,1.50
2023-04-02T22:13:40.636Z,1.43
2023-04-02T22:18:44.472Z,1.34
2023-04-02T22:23:48.026Z,1.24
2023-04-02T22:28:52.288Z,1.13
2023-04-02T22:33:57.372Z,1.04
2023-04-02T22:39:01.322Z,0.95
2023-04-02T22:44:04.164Z,0.85
2023-04-02T22:49:05.809Z,0.77
2023-04-02T22:54:08.510Z,0.67
2023-04-02T22:59:10.384Z,0.57
2023-04-02T23:04:12.498Z,0.46
2023-04-02T23:09:16.650Z,0.35
2023-04-02T23:14:19.204Z,0.27
2023-04-02T23:19:21.528Z,0.20
2023-04-02T23:24:25.177Z,0.11
2023-04-02T23:29:28.281Z,0.03
2023-04-02T23:34:32.272Z,-0.04
2023-04-02T23:39:37.047Z,-0.10
2023-04-02T23:44:40.395Z,-0.17
2023-04-02T23:49:48.319Z,-0.23
2023-04-02T23:54:51.677Z,-0.27
2023-04-02T23:59:54.134Z,-0.30
